sensor_id;sensor_type;location;lat;lon;timestamp;P1;durP1;ratioP1;P2;durP2;ratioP2
64641;SDS011;59936;51.490;5.436;2022-12-20T00:02:44;5.93;;;5.25;;
64641;SDS011;59936;51.490;5.436;2022-12-20T00:07:46;6.03;;;4.57;;
64641;SDS011;59936;51.490;5.436;2022-12-20T00:12:47;4.00;;;3.80;;
64641;SDS011;59936;51.490;5.436;2022-12-20T00:17:50;4.68;;;4.38;;
64641;SDS011;59936;51.490;5.436;2022-12-20T00:22:52;4.22;;;3.85;;
64641;SDS011;59936;51.490;5.436;2022-12-20T00:27:54;7.00;;;6.22;;
64641;SDS011;59936;51.490;5.436;2022-12-20T00:32:57;4.72;;;4.43;;
64641;SDS011;59936;51.490;5.436;2022-12-20T00:37:59;4.93;;;4.55;;
64641;SDS011;59936;51.490;5.436;2022-12-20T00:43:01;4.32;;;4.03;;
64641;SDS011;59936;51.490;5.436;2022-12-20T00:53:07;3.65;;;3.38;;
64641;SDS011;59936;51.490;5.436;2022-12-20T01:03:14;4.38;;;3.45;;
64641;SDS011;59936;51.490;5.436;2022-12-20T01:08:16;4.72;;;3.60;;
64641;SDS011;59936;51.490;5.436;2022-12-20T01:13:18;3.67;;;3.15;;
64641;SDS011;59936;51.490;5.436;2022-12-20T01:18:21;8.23;;;4.57;;
64641;SDS011;59936;51.490;5.436;2022-12-20T01:23:23;9.48;;;8.88;;
64641;SDS011;59936;51.490;5.436;2022-12-20T01:28:26;9.15;;;8.45;;
64641;SDS011;59936;51.490;5.436;2022-12-20T01:33:30;7.75;;;7.05;;
64641;SDS011;59936;51.490;5.436;2022-12-20T01:38:32;6.25;;;5.60;;
64641;SDS011;59936;51.490;5.436;2022-12-20T01:43:46;8.70;;;7.05;;
64641;SDS011;59936;51.490;5.436;2022-12-20T01:48:53;7.15;;;6.25;;
64641;SDS011;59936;51.490;5.436;2022-12-20T01:54:00;10.93;;;9.77;;
64641;SDS011;59936;51.490;5.436;2022-12-20T01:59:10;22.13;;;20.67;;
64641;SDS011;59936;51.490;5.436;2022-12-20T02:04:15;7.47;;;7.05;;
64641;SDS011;59936;51.490;5.436;2022-12-20T02:09:18;20.38;;;19.15;;
64641;SDS011;59936;51.490;5.436;2022-12-20T02:14:25;11.05;;;10.25;;
64641;SDS011;59936;51.490;5.436;2022-12-20T02:20:00;6.63;;;6.15;;
64641;SDS011;59936;51.490;5.436;2022-12-20T02:31:11;13.32;;;12.35;;
64641;SDS011;59936;51.490;5.436;2022-12-20T02:36:19;6.88;;;6.45;;
64641;SDS011;59936;51.490;5.436;2022-12-20T02:41:22;8.50;;;7.95;;
64641;SDS011;59936;51.490;5.436;2022-12-20T02:46:31;15.80;;;14.93;;
64641;SDS011;59936;51.490;5.436;2022-12-20T02:51:35;6.88;;;6.38;;
64641;SDS011;59936;51.490;5.436;2022-12-20T02:56:40;17.98;;;16.95;;
64641;SDS011;59936;51.490;5.436;2022-12-20T03:01:51;12.32;;;11.50;;
64641;SDS011;59936;51.490;5.436;2022-12-20T03:06:55;12.68;;;12.05;;
64641;SDS011;59936;51.490;5.436;2022-12-20T03:12:00;15.55;;;14.50;;
64641;SDS011;59936;51.490;5.436;2022-12-20T03:17:05;14.57;;;13.77;;
64641;SDS011;59936;51.490;5.436;2022-12-20T03:22:07;18.88;;;17.50;;
64641;SDS011;59936;51.490;5.436;2022-12-20T03:27:09;7.20;;;5.97;;
64641;SDS011;59936;51.490;5.436;2022-12-20T03:32:12;15.30;;;14.43;;
64641;SDS011;59936;51.490;5.436;2022-12-20T03:37:14;11.70;;;10.98;;
64641;SDS011;59936;51.490;5.436;2022-12-20T03:47:19;6.23;;;5.73;;
64641;SDS011;59936;51.490;5.436;2022-12-20T03:52:21;14.40;;;13.35;;
64641;SDS011;59936;51.490;5.436;2022-12-20T03:57:23;6.25;;;5.10;;
64641;SDS011;59936;51.490;5.436;2022-12-20T04:02:26;5.18;;;4.85;;
64641;SDS011;59936;51.490;5.436;2022-12-20T04:07:28;5.95;;;5.55;;
64641;SDS011;59936;51.490;5.436;2022-12-20T04:12:29;5.32;;;5.05;;
64641;SDS011;59936;51.490;5.436;2022-12-20T04:17:32;26.77;;;24.08;;
64641;SDS011;59936;51.490;5.436;2022-12-20T04:22:34;6.57;;;6.05;;
64641;SDS011;59936;51.490;5.436;2022-12-20T04:27:36;5.55;;;5.15;;
64641;SDS011;59936;51.490;5.436;2022-12-20T04:32:39;4.80;;;4.43;;
64641;SDS011;59936;51.490;5.436;2022-12-20T04:37:41;5.50;;;5.00;;
64641;SDS011;59936;51.490;5.436;2022-12-20T04:42:42;4.90;;;4.63;;
64641;SDS011;59936;51.490;5.436;2022-12-20T04:47:45;6.65;;;6.25;;
64641;SDS011;59936;51.490;5.436;2022-12-20T04:52:48;5.60;;;5.10;;
64641;SDS011;59936;51.490;5.436;2022-12-20T04:58:07;5.25;;;4.78;;
64641;SDS011;59936;51.490;5.436;2022-12-20T05:03:12;4.72;;;4.32;;
64641;SDS011;59936;51.490;5.436;2022-12-20T05:08:13;7.40;;;6.80;;
64641;SDS011;59936;51.490;5.436;2022-12-20T05:13:15;7.95;;;7.50;;
64641;SDS011;59936;51.490;5.436;2022-12-20T05:18:18;9.48;;;8.77;;
64641;SDS011;59936;51.490;5.436;2022-12-20T05:23:21;4.85;;;4.45;;
64641;SDS011;59936;51.490;5.436;2022-12-20T05:28:46;4.45;;;4.03;;
64641;SDS011;59936;51.490;5.436;2022-12-20T05:33:49;5.28;;;4.90;;
64641;SDS011;59936;51.490;5.436;2022-12-20T05:38:50;4.00;;;3.80;;
64641;SDS011;59936;51.490;5.436;2022-12-20T05:43:52;7.90;;;7.43;;
64641;SDS011;59936;51.490;5.436;2022-12-20T05:48:55;4.60;;;4.30;;
64641;SDS011;59936;51.490;5.436;2022-12-20T05:53:57;7.03;;;6.50;;
64641;SDS011;59936;51.490;5.436;2022-12-20T05:58:58;13.20;;;12.40;;
64641;SDS011;59936;51.490;5.436;2022-12-20T06:04:02;4.78;;;4.22;;
64641;SDS011;59936;51.490;5.436;2022-12-20T06:09:04;4.45;;;4.05;;
64641;SDS011;59936;51.490;5.436;2022-12-20T06:14:05;4.75;;;4.18;;
64641;SDS011;59936;51.490;5.436;2022-12-20T06:19:08;7.47;;;7.00;;
64641;SDS011;59936;51.490;5.436;2022-12-20T06:24:10;4.75;;;4.45;;
64641;SDS011;59936;51.490;5.436;2022-12-20T06:29:12;5.88;;;4.82;;
64641;SDS011;59936;51.490;5.436;2022-12-20T06:34:17;6.75;;;6.28;;
64641;SDS011;59936;51.490;5.436;2022-12-20T06:39:21;18.65;;;17.65;;
64641;SDS011;59936;51.490;5.436;2022-12-20T06:44:23;5.43;;;4.30;;
64641;SDS011;59936;51.490;5.436;2022-12-20T06:49:26;7.40;;;6.90;;
64641;SDS011;59936;51.490;5.436;2022-12-20T06:54:28;7.85;;;7.35;;
64641;SDS011;59936;51.490;5.436;2022-12-20T06:59:30;4.18;;;3.65;;
64641;SDS011;59936;51.490;5.436;2022-12-20T07:04:34;15.68;;;14.82;;
64641;SDS011;59936;51.490;5.436;2022-12-20T07:09:36;3.97;;;3.17;;
64641;SDS011;59936;51.490;5.436;2022-12-20T07:14:41;3.78;;;3.47;;
64641;SDS011;59936;51.490;5.436;2022-12-20T07:19:45;4.70;;;2.95;;
64641;SDS011;59936;51.490;5.436;2022-12-20T07:24:47;9.85;;;9.35;;
64641;SDS011;59936;51.490;5.436;2022-12-20T07:29:49;3.78;;;3.22;;
64641;SDS011;59936;51.490;5.436;2022-12-20T07:34:53;3.70;;;3.38;;
64641;SDS011;59936;51.490;5.436;2022-12-20T07:39:55;4.28;;;3.45;;
64641;SDS011;59936;51.490;5.436;2022-12-20T07:44:56;3.70;;;3.50;;
64641;SDS011;59936;51.490;5.436;2022-12-20T07:50:00;3.63;;;3.20;;
64641;SDS011;59936;51.490;5.436;2022-12-20T07:55:03;4.93;;;3.25;;
64641;SDS011;59936;51.490;5.436;2022-12-20T08:00:09;3.40;;;3.13;;
64641;SDS011;59936;51.490;5.436;2022-12-20T08:05:16;4.68;;;3.17;;
64641;SDS011;59936;51.490;5.436;2022-12-20T08:10:18;8.68;;;8.18;;
64641;SDS011;59936;51.490;5.436;2022-12-20T08:15:21;6.80;;;6.40;;
64641;SDS011;59936;51.490;5.436;2022-12-20T08:20:25;5.32;;;4.03;;
64641;SDS011;59936;51.490;5.436;2022-12-20T08:25:27;5.53;;;5.13;;
64641;SDS011;59936;51.490;5.436;2022-12-20T08:30:29;12.00;;;11.15;;
64641;SDS011;59936;51.490;5.436;2022-12-20T08:35:32;7.57;;;7.18;;
64641;SDS011;59936;51.490;5.436;2022-12-20T08:40:34;17.70;;;16.52;;
64641;SDS011;59936;51.490;5.436;2022-12-20T08:45:36;7.47;;;6.97;;
64641;SDS011;59936;51.490;5.436;2022-12-20T08:50:39;47.38;;;44.00;;
64641;SDS011;59936;51.490;5.436;2022-12-20T08:55:41;10.10;;;9.50;;
64641;SDS011;59936;51.490;5.436;2022-12-20T09:00:43;10.95;;;10.30;;
64641;SDS011;59936;51.490;5.436;2022-12-20T09:05:47;7.72;;;7.22;;
64641;SDS011;59936;51.490;5.436;2022-12-20T09:10:49;20.95;;;19.55;;
64641;SDS011;59936;51.490;5.436;2022-12-20T09:15:52;6.70;;;6.22;;
64641;SDS011;59936;51.490;5.436;2022-12-20T09:20:59;7.28;;;6.68;;
64641;SDS011;59936;51.490;5.436;2022-12-20T09:26:02;43.78;;;41.03;;
64641;SDS011;59936;51.490;5.436;2022-12-20T09:31:09;7.47;;;6.90;;
64641;SDS011;59936;51.490;5.436;2022-12-20T09:36:17;7.18;;;6.65;;
64641;SDS011;59936;51.490;5.436;2022-12-20T09:41:24;9.00;;;8.13;;
64641;SDS011;59936;51.490;5.436;2022-12-20T09:46:32;7.38;;;6.70;;
64641;SDS011;59936;51.490;5.436;2022-12-20T09:51:51;7.55;;;7.05;;
64641;SDS011;59936;51.490;5.436;2022-12-20T09:57:21;6.20;;;4.90;;
64641;SDS011;59936;51.490;5.436;2022-12-20T10:07:47;5.88;;;5.45;;
64641;SDS011;59936;51.490;5.436;2022-12-20T10:13:02;7.20;;;6.72;;
64641;SDS011;59936;51.490;5.436;2022-12-20T10:18:25;5.78;;;5.38;;
64641;SDS011;59936;51.490;5.436;2022-12-20T10:23:49;28.13;;;26.52;;
64641;SDS011;59936;51.490;5.436;2022-12-20T10:29:01;7.28;;;6.78;;
64641;SDS011;59936;51.490;5.436;2022-12-20T10:34:03;7.57;;;6.97;;
64641;SDS011;59936;51.490;5.436;2022-12-20T10:39:06;6.18;;;5.60;;
64641;SDS011;59936;51.490;5.436;2022-12-20T10:44:14;9.35;;;8.77;;
64641;SDS011;59936;51.490;5.436;2022-12-20T10:49:27;9.90;;;9.32;;
64641;SDS011;59936;51.490;5.436;2022-12-20T10:54:34;15.95;;;14.95;;
64641;SDS011;59936;51.490;5.436;2022-12-20T10:59:38;10.80;;;9.82;;
64641;SDS011;59936;51.490;5.436;2022-12-20T11:04:55;8.82;;;8.18;;
64641;SDS011;59936;51.490;5.436;2022-12-20T11:10:02;18.73;;;17.13;;
64641;SDS011;59936;51.490;5.436;2022-12-20T11:15:19;10.65;;;9.57;;
64641;SDS011;59936;51.490;5.436;2022-12-20T11:20:24;8.52;;;7.70;;
64641;SDS011;59936;51.490;5.436;2022-12-20T11:25:44;8.55;;;8.05;;
64641;SDS011;59936;51.490;5.436;2022-12-20T11:31:06;12.68;;;11.57;;
64641;SDS011;59936;51.490;5.436;2022-12-20T11:36:21;13.93;;;12.65;;
64641;SDS011;59936;51.490;5.436;2022-12-20T11:46:55;10.32;;;9.25;;
64641;SDS011;59936;51.490;5.436;2022-12-20T11:52:19;11.40;;;10.30;;
64641;SDS011;59936;51.490;5.436;2022-12-20T11:57:38;29.27;;;27.50;;
64641;SDS011;59936;51.490;5.436;2022-12-20T12:02:50;10.00;;;9.20;;
64641;SDS011;59936;51.490;5.436;2022-12-20T12:08:00;12.75;;;11.75;;
64641;SDS011;59936;51.490;5.436;2022-12-20T12:13:14;16.67;;;15.55;;
64641;SDS011;59936;51.490;5.436;2022-12-20T12:18:24;20.33;;;19.13;;
64641;SDS011;59936;51.490;5.436;2022-12-20T12:23:31;11.60;;;10.65;;
64641;SDS011;59936;51.490;5.436;2022-12-20T12:28:50;15.15;;;14.25;;
64641;SDS011;59936;51.490;5.436;2022-12-20T12:33:59;17.95;;;16.58;;
64641;SDS011;59936;51.490;5.436;2022-12-20T12:39:21;19.63;;;18.33;;
64641;SDS011;59936;51.490;5.436;2022-12-20T12:44:51;11.32;;;10.55;;
64641;SDS011;59936;51.490;5.436;2022-12-20T12:49:58;15.23;;;14.00;;
64641;SDS011;59936;51.490;5.436;2022-12-20T12:55:00;12.10;;;11.30;;
64641;SDS011;59936;51.490;5.436;2022-12-20T13:00:17;19.13;;;17.63;;
64641;SDS011;59936;51.490;5.436;2022-12-20T13:05:48;14.55;;;13.48;;
64641;SDS011;59936;51.490;5.436;2022-12-20T13:10:55;14.48;;;12.77;;
64641;SDS011;59936;51.490;5.436;2022-12-20T13:16:08;14.73;;;13.73;;
64641;SDS011;59936;51.490;5.436;2022-12-20T13:21:29;10.90;;;9.80;;
64641;SDS011;59936;51.490;5.436;2022-12-20T13:26:42;16.50;;;15.20;;
64641;SDS011;59936;51.490;5.436;2022-12-20T13:31:54;13.07;;;10.63;;
64641;SDS011;59936;51.490;5.436;2022-12-20T13:36:57;18.95;;;17.63;;
64641;SDS011;59936;51.490;5.436;2022-12-20T13:47:45;13.18;;;12.25;;
64641;SDS011;59936;51.490;5.436;2022-12-20T13:52:54;22.83;;;21.35;;
64641;SDS011;59936;51.490;5.436;2022-12-20T13:57:56;26.17;;;24.50;;
64641;SDS011;59936;51.490;5.436;2022-12-20T14:03:08;13.25;;;12.32;;
64641;SDS011;59936;51.490;5.436;2022-12-20T14:08:21;13.40;;;12.50;;
64641;SDS011;59936;51.490;5.436;2022-12-20T14:13:29;12.75;;;11.73;;
64641;SDS011;59936;51.490;5.436;2022-12-20T14:18:33;19.10;;;17.98;;
64641;SDS011;59936;51.490;5.436;2022-12-20T14:23:36;13.10;;;12.10;;
64641;SDS011;59936;51.490;5.436;2022-12-20T14:28:41;16.23;;;14.85;;
64641;SDS011;59936;51.490;5.436;2022-12-20T14:33:48;15.50;;;14.15;;
64641;SDS011;59936;51.490;5.436;2022-12-20T14:38:51;16.15;;;14.95;;
64641;SDS011;59936;51.490;5.436;2022-12-20T14:43:53;15.60;;;14.13;;
64641;SDS011;59936;51.490;5.436;2022-12-20T14:49:15;13.43;;;12.43;;
64641;SDS011;59936;51.490;5.436;2022-12-20T14:54:24;16.20;;;15.00;;
64641;SDS011;59936;51.490;5.436;2022-12-20T14:59:29;13.15;;;12.05;;
64641;SDS011;59936;51.490;5.436;2022-12-20T15:04:33;13.10;;;12.00;;
64641;SDS011;59936;51.490;5.436;2022-12-20T15:09:37;13.77;;;12.68;;
64641;SDS011;59936;51.490;5.436;2022-12-20T15:14:40;15.20;;;13.98;;
64641;SDS011;59936;51.490;5.436;2022-12-20T15:19:44;15.48;;;14.07;;
64641;SDS011;59936;51.490;5.436;2022-12-20T15:24:46;14.88;;;13.45;;
64641;SDS011;59936;51.490;5.436;2022-12-20T15:29:48;13.88;;;12.65;;
64641;SDS011;59936;51.490;5.436;2022-12-20T15:34:51;16.95;;;15.43;;
64641;SDS011;59936;51.490;5.436;2022-12-20T15:39:53;17.55;;;13.85;;
64641;SDS011;59936;51.490;5.436;2022-12-20T15:44:55;16.35;;;14.85;;
64641;SDS011;59936;51.490;5.436;2022-12-20T15:55:00;15.88;;;12.55;;
64641;SDS011;59936;51.490;5.436;2022-12-20T16:00:02;18.02;;;15.40;;
64641;SDS011;59936;51.490;5.436;2022-12-20T16:05:09;15.15;;;13.88;;
64641;SDS011;59936;51.490;5.436;2022-12-20T16:10:13;15.43;;;13.88;;
64641;SDS011;59936;51.490;5.436;2022-12-20T16:15:18;17.45;;;15.25;;
64641;SDS011;59936;51.490;5.436;2022-12-20T16:20:22;15.90;;;14.15;;
64641;SDS011;59936;51.490;5.436;2022-12-20T16:25:28;16.05;;;14.52;;
64641;SDS011;59936;51.490;5.436;2022-12-20T16:30:33;16.23;;;14.52;;
64641;SDS011;59936;51.490;5.436;2022-12-20T16:35:36;18.10;;;14.35;;
64641;SDS011;59936;51.490;5.436;2022-12-20T16:40:39;22.10;;;19.92;;
64641;SDS011;59936;51.490;5.436;2022-12-20T16:45:41;18.15;;;14.27;;
64641;SDS011;59936;51.490;5.436;2022-12-20T16:50:46;17.35;;;15.90;;
64641;SDS011;59936;51.490;5.436;2022-12-20T16:55:48;13.70;;;12.40;;
64641;SDS011;59936;51.490;5.436;2022-12-20T17:05:53;14.10;;;12.47;;
64641;SDS011;59936;51.490;5.436;2022-12-20T17:10:56;13.45;;;11.85;;
64641;SDS011;59936;51.490;5.436;2022-12-20T17:15:59;19.45;;;17.42;;
64641;SDS011;59936;51.490;5.436;2022-12-20T17:21:02;14.05;;;12.70;;
64641;SDS011;59936;51.490;5.436;2022-12-20T17:26:20;19.52;;;17.50;;
64641;SDS011;59936;51.490;5.436;2022-12-20T17:31:26;17.73;;;16.05;;
64641;SDS011;59936;51.490;5.436;2022-12-20T17:36:32;14.05;;;12.73;;
64641;SDS011;59936;51.490;5.436;2022-12-20T17:41:34;26.00;;;19.27;;
64641;SDS011;59936;51.490;5.436;2022-12-20T17:46:36;19.38;;;16.52;;
64641;SDS011;59936;51.490;5.436;2022-12-20T17:51:39;18.80;;;16.83;;
64641;SDS011;59936;51.490;5.436;2022-12-20T17:56:41;16.10;;;14.43;;
64641;SDS011;59936;51.490;5.436;2022-12-20T18:01:43;21.10;;;17.80;;
64641;SDS011;59936;51.490;5.436;2022-12-20T18:06:47;16.80;;;15.15;;
64641;SDS011;59936;51.490;5.436;2022-12-20T18:11:51;16.80;;;15.30;;
64641;SDS011;59936;51.490;5.436;2022-12-20T18:16:52;18.38;;;16.55;;
64641;SDS011;59936;51.490;5.436;2022-12-20T18:26:59;17.83;;;15.98;;
64641;SDS011;59936;51.490;5.436;2022-12-20T18:32:01;16.98;;;15.45;;
64641;SDS011;59936;51.490;5.436;2022-12-20T18:37:04;18.83;;;17.13;;
64641;SDS011;59936;51.490;5.436;2022-12-20T18:42:06;16.67;;;15.07;;
64641;SDS011;59936;51.490;5.436;2022-12-20T18:47:08;17.80;;;15.95;;
64641;SDS011;59936;51.490;5.436;2022-12-20T18:52:11;17.73;;;15.93;;
64641;SDS011;59936;51.490;5.436;2022-12-20T18:57:13;18.48;;;15.73;;
64641;SDS011;59936;51.490;5.436;2022-12-20T19:02:14;18.33;;;16.27;;
64641;SDS011;59936;51.490;5.436;2022-12-20T19:07:18;16.80;;;15.32;;
64641;SDS011;59936;51.490;5.436;2022-12-20T19:12:19;20.02;;;18.02;;
64641;SDS011;59936;51.490;5.436;2022-12-20T19:17:21;19.92;;;17.92;;
64641;SDS011;59936;51.490;5.436;2022-12-20T19:22:24;17.15;;;15.60;;
64641;SDS011;59936;51.490;5.436;2022-12-20T19:27:26;17.90;;;15.95;;
64641;SDS011;59936;51.490;5.436;2022-12-20T19:32:27;19.70;;;17.65;;
64641;SDS011;59936;51.490;5.436;2022-12-20T19:37:30;17.23;;;15.65;;
64641;SDS011;59936;51.490;5.436;2022-12-20T19:42:32;18.67;;;17.10;;
64641;SDS011;59936;51.490;5.436;2022-12-20T19:47:35;19.90;;;17.33;;
64641;SDS011;59936;51.490;5.436;2022-12-20T19:52:38;17.63;;;15.77;;
64641;SDS011;59936;51.490;5.436;2022-12-20T19:57:39;18.67;;;16.73;;
64641;SDS011;59936;51.490;5.436;2022-12-20T20:02:41;19.15;;;17.17;;
64641;SDS011;59936;51.490;5.436;2022-12-20T20:07:44;18.88;;;16.80;;
64641;SDS011;59936;51.490;5.436;2022-12-20T20:12:46;20.73;;;18.50;;
64641;SDS011;59936;51.490;5.436;2022-12-20T20:17:47;18.25;;;16.48;;
64641;SDS011;59936;51.490;5.436;2022-12-20T20:22:51;22.00;;;19.77;;
64641;SDS011;59936;51.490;5.436;2022-12-20T20:27:52;20.27;;;18.38;;
64641;SDS011;59936;51.490;5.436;2022-12-20T20:32:54;20.67;;;18.48;;
64641;SDS011;59936;51.490;5.436;2022-12-20T20:37:57;20.27;;;18.17;;
64641;SDS011;59936;51.490;5.436;2022-12-20T20:42:59;20.05;;;18.05;;
64641;SDS011;59936;51.490;5.436;2022-12-20T20:53:04;22.53;;;20.37;;
64641;SDS011;59936;51.490;5.436;2022-12-20T20:58:08;21.23;;;19.20;;
64641;SDS011;59936;51.490;5.436;2022-12-20T21:03:10;23.75;;;20.20;;
64641;SDS011;59936;51.490;5.436;2022-12-20T21:08:14;23.55;;;20.90;;
64641;SDS011;59936;51.490;5.436;2022-12-20T21:13:16;22.73;;;20.38;;
64641;SDS011;59936;51.490;5.436;2022-12-20T21:18:19;22.23;;;18.85;;
64641;SDS011;59936;51.490;5.436;2022-12-20T21:23:23;24.08;;;20.20;;
64641;SDS011;59936;51.490;5.436;2022-12-20T21:28:26;20.67;;;18.38;;
64641;SDS011;59936;51.490;5.436;2022-12-20T21:33:28;22.42;;;20.13;;
64641;SDS011;59936;51.490;5.436;2022-12-20T21:38:31;21.52;;;19.27;;
64641;SDS011;59936;51.490;5.436;2022-12-20T21:43:34;30.95;;;24.05;;
64641;SDS011;59936;51.490;5.436;2022-12-20T21:48:36;24.52;;;21.95;;
64641;SDS011;59936;51.490;5.436;2022-12-20T21:53:41;30.75;;;21.08;;
64641;SDS011;59936;51.490;5.436;2022-12-20T21:58:45;26.15;;;22.75;;
64641;SDS011;59936;51.490;5.436;2022-12-20T22:03:48;33.15;;;23.58;;
64641;SDS011;59936;51.490;5.436;2022-12-20T22:08:52;28.55;;;22.00;;
64641;SDS011;59936;51.490;5.436;2022-12-20T22:13:55;29.00;;;23.00;;
64641;SDS011;59936;51.490;5.436;2022-12-20T22:18:57;26.38;;;21.55;;
64641;SDS011;59936;51.490;5.436;2022-12-20T22:24:01;28.23;;;23.33;;
64641;SDS011;59936;51.490;5.436;2022-12-20T22:29:04;33.65;;;24.27;;
64641;SDS011;59936;51.490;5.436;2022-12-20T22:34:06;32.95;;;22.63;;
64641;SDS011;59936;51.490;5.436;2022-12-20T22:39:09;29.40;;;21.55;;
64641;SDS011;59936;51.490;5.436;2022-12-20T22:44:13;39.28;;;26.30;;
64641;SDS011;59936;51.490;5.436;2022-12-20T22:49:15;35.20;;;23.00;;
64641;SDS011;59936;51.490;5.436;2022-12-20T22:54:19;41.03;;;24.23;;
64641;SDS011;59936;51.490;5.436;2022-12-20T22:59:21;35.15;;;23.48;;
64641;SDS011;59936;51.490;5.436;2022-12-20T23:04:22;36.33;;;23.70;;
64641;SDS011;59936;51.490;5.436;2022-12-20T23:09:26;35.95;;;24.58;;
64641;SDS011;59936;51.490;5.436;2022-12-20T23:14:28;45.25;;;27.40;;
64641;SDS011;59936;51.490;5.436;2022-12-20T23:19:47;42.92;;;26.88;;
64641;SDS011;59936;51.490;5.436;2022-12-20T23:25:05;48.72;;;26.23;;
64641;SDS011;59936;51.490;5.436;2022-12-20T23:30:10;38.38;;;30.50;;
64641;SDS011;59936;51.490;5.436;2022-12-20T23:35:16;43.53;;;39.13;;
64641;SDS011;59936;51.490;5.436;2022-12-20T23:40:21;73.47;;;37.13;;
64641;SDS011;59936;51.490;5.436;2022-12-20T23:45:23;52.65;;;32.92;;
64641;SDS011;59936;51.490;5.436;2022-12-20T23:50:25;53.70;;;34.67;;
64641;SDS011;59936;51.490;5.436;2022-12-20T23:55:28;51.33;;;35.45;;
